DECAM EDLW-EHEH

Flight info

Callsign DECAM
Flight time N/A
Altitude 5000
Route EDDL
Aircraft SR22/L-SDGRY/S

Departure

Time 2026-05-04 16:36
Airport Dortmund Airport (EDLW)

Arrival

Time N/A
Airport Eindhoven Airport (EHEH)
Time Latitude Longitude Altitude Speed Heading
2026-05-04 16:16 51.51153 7.60311 462 ft 0 kts 195°
2026-05-04 16:26 51.51151 7.60242 458 ft 17 kts 276°
2026-05-04 16:27 51.51309 7.60484 437 ft 30 kts 60°
2026-05-04 16:28 51.51581 7.61059 424 ft 17 kts 36°
2026-05-04 16:28 51.51803 7.61682 413 ft 27 kts 60°
2026-05-04 16:29 51.52117 7.62373 405 ft 0 kts 332°
2026-05-04 16:31 51.52125 7.62366 405 ft 3 kts 332°
2026-05-04 16:32 51.52132 7.62361 405 ft 0 kts 327°
2026-05-04 16:34 51.52182 7.62312 406 ft 12 kts 327°
2026-05-04 16:34 51.52192 7.62240 406 ft 0 kts 238°
2026-05-04 16:35 51.51622 7.60645 645 ft 104 kts 238°
2026-05-04 16:36 51.51246 7.59598 922 ft 115 kts 255°
2026-05-04 16:36 51.52378 7.57549 1179 ft 145 kts 331°
2026-05-04 16:37 51.54254 7.55972 1012 ft 153 kts 331°
2026-05-04 16:37 51.55197 7.55223 962 ft 149 kts 332°
2026-05-04 16:37 51.57093 7.53914 852 ft 150 kts 337°
2026-05-04 16:38 51.58952 7.52728 1040 ft 139 kts 335°
2026-05-04 16:39 51.61682 7.50696 997 ft 143 kts 334°
2026-05-04 16:39 51.62553 7.48118 1012 ft 141 kts 273°
2026-05-04 16:40 51.62746 7.45038 1020 ft 140 kts 276°
2026-05-04 16:40 51.62922 7.41922 1021 ft 140 kts 274°
2026-05-04 16:41 51.63172 7.38797 1004 ft 138 kts 271°
2026-05-04 16:41 51.62235 7.34632 1000 ft 130 kts 245°
2026-05-04 16:42 51.61231 7.30665 1006 ft 129 kts 246°
2026-05-04 16:43 51.60535 7.27947 995 ft 132 kts 246°
2026-05-04 16:43 51.59823 7.25175 993 ft 142 kts 245°
2026-05-04 16:43 51.59422 7.23653 993 ft 153 kts 245°
2026-05-04 16:44 51.57932 7.17683 1857 ft 141 kts 246°
2026-05-04 16:45 51.57188 7.14639 1995 ft 151 kts 244°
2026-05-04 16:46 51.55985 7.09698 1990 ft 163 kts 246°
2026-05-04 16:46 51.55145 7.06276 1987 ft 167 kts 245°
2026-05-04 16:47 51.54284 7.02793 1990 ft 167 kts 245°
2026-05-04 16:47 51.54488 6.99099 1984 ft 172 kts 283°
2026-05-04 16:48 51.55431 6.93572 1977 ft 170 kts 282°
2026-05-04 16:48 51.55749 6.91739 1979 ft 170 kts 282°
2026-05-04 16:49 51.55400 6.88137 1974 ft 166 kts 247°
2026-05-04 16:49 51.54613 6.84632 1977 ft 168 kts 248°
2026-05-04 16:50 51.53817 6.81116 1979 ft 167 kts 247°
2026-05-04 16:50 51.53041 6.77621 1982 ft 167 kts 248°
2026-05-04 16:51 51.51544 6.75220 1693 ft 166 kts 184°
2026-05-04 16:51 51.50435 6.75109 1644 ft 153 kts 182°
2026-05-04 16:51 51.48450 6.74473 1548 ft 146 kts 195°
2026-05-04 16:52 51.46506 6.73631 1554 ft 143 kts 194°
2026-05-04 16:52 51.45632 6.72975 1715 ft 141 kts 222°
2026-05-04 16:53 51.44488 6.70309 1914 ft 146 kts 231°
2026-05-04 16:53 51.42641 6.66600 2195 ft 139 kts 223°
2026-05-04 16:54 51.41950 6.65473 2242 ft 143 kts 221°
2026-05-04 16:55 51.38852 6.61079 2432 ft 152 kts 214°
2026-05-04 16:55 51.37033 6.59130 2320 ft 159 kts 210°
2026-05-04 16:56 51.35085 6.57402 2269 ft 161 kts 205°
2026-05-04 16:56 51.32014 6.55377 2256 ft 161 kts 194°
2026-05-04 16:57 51.30987 6.54759 2309 ft 158 kts 205°
2026-05-04 16:57 51.29040 6.53153 2015 ft 159 kts 216°
2026-05-04 16:58 51.29829 6.49001 1506 ft 161 kts 346°
2026-05-04 16:58 51.30539 6.48741 1502 ft 155 kts 347°
2026-05-04 16:59 51.32601 6.47944 1499 ft 158 kts 346°
2026-05-04 17:00 51.37115 6.46220 1484 ft 171 kts 347°
2026-05-04 17:00 51.40181 6.43681 1485 ft 174 kts 302°
2026-05-04 17:01 51.41444 6.40352 1484 ft 174 kts 285°
2026-05-04 17:01 51.42081 6.36639 1482 ft 173 kts 283°
2026-05-04 17:02 51.42709 6.32958 1476 ft 172 kts 283°
2026-05-04 17:02 51.43248 6.29361 1862 ft 149 kts 265°
2026-05-04 17:03 51.43077 6.27768 2127 ft 144 kts 255°
2026-05-04 17:03 51.42896 6.26178 2328 ft 145 kts 257°
2026-05-04 17:03 51.41604 6.24096 2478 ft 154 kts 175°
2026-05-04 17:04 51.40323 6.26628 2484 ft 167 kts 94°
2026-05-04 17:04 51.40432 6.30389 2484 ft 171 kts 89°
2026-05-04 17:05 51.40567 6.34199 2484 ft 171 kts 88°
2026-05-04 17:05 51.40688 6.37957 2484 ft 169 kts 89°
2026-05-04 17:06 51.40830 6.41714 2476 ft 168 kts 89°
2026-05-04 17:06 51.40903 6.43591 2479 ft 169 kts 89°
2026-05-04 17:07 51.41032 6.47364 2480 ft 170 kts 88°
2026-05-04 17:07 51.41070 6.48599 2410 ft 167 kts 88°
2026-05-04 17:07 51.41153 6.51105 2100 ft 167 kts 88°
2026-05-04 17:07 51.41214 6.52924 1985 ft 161 kts 89°
2026-05-04 17:08 51.41272 6.54658 1974 ft 151 kts 89°
2026-05-04 17:08 51.41396 6.57889 1973 ft 141 kts 87°
2026-05-04 17:08 51.41818 6.59289 1971 ft 143 kts 54°
2026-05-04 17:09 51.42419 6.60570 1974 ft 145 kts 58°
2026-05-04 17:09 51.42979 6.61938 1975 ft 147 kts 58°
2026-05-04 17:09 51.43528 6.63329 1973 ft 148 kts 60°
2026-05-04 17:10 51.44611 6.66112 1984 ft 147 kts 60°